Flight Track Log - Related Links

Times and Time Zones

All times are in EDT time to prevent confusion due to time zone crossing. See the N81321 flight status page for this flight to view local times or setup timezone preferences in your user account.

Time Position Orientation Groundspeed Altitude Reporting Facility
EDT Latitude Longitude Course Direction KTS MPH feet Rate Location/Type
Sat 05:19:01 PM 40.2833 -74.8167 323° Northwest 71 82 600  Level Philadelphia TRACON
Sat 05:20:07 PM 40.3000 -74.8333 323° Northwest 61 70 1,300 571 Climbing Philadelphia TRACON
Sat 05:21:07 PM 40.3167 -74.8500 323° Northwest 69 79 1,800 355 Climbing Philadelphia TRACON
Sat 05:23:00 PM 40.3347 -74.7889 69° East  Level Estimated
Sat 05:30:00 PM 40.4012 -74.5616 69° East  Level Estimated
Sat 05:30:32 PM 40.2167 -74.5667 69° East 128 147 5,000  Level New York TRACON
Sat 05:31:00 PM 40.4107 -74.5291 69° East  Level Estimated
Sat 05:31:32 PM 40.2167 -74.5167 90° East 126 145 4,900  Level New York TRACON
Sat 05:32:00 PM 40.4202 -74.4966 69° East  Level Estimated
Sat 05:32:32 PM 40.2000 -74.4833 123° Southeast 124 143 5,000  Level New York TRACON
Sat 05:33:00 PM 40.4296 -74.4641 69° East  Level Estimated
Sat 05:33:32 PM 40.1833 -74.4333 114° Southeast 125 144 5,000  Level New York TRACON
Sat 05:34:00 PM 40.4391 -74.4315 69° East  Level Estimated
Sat 05:34:32 PM 40.1833 -74.4000 90° East 124 143 5,000  Level New York TRACON
Sat 05:35:00 PM 40.4485 -74.3990 69° East  Level Estimated
Sat 05:35:32 PM 40.1833 -74.3500 90° East 121 139 5,000  Level New York TRACON
Sat 05:36:00 PM 40.4580 -74.3664 69° East  Level Estimated
Sat 05:36:32 PM 40.1833 -74.3167 90° East 112 129 5,000  Level New York TRACON
Sat 05:37:32 PM 40.1833 -74.2667 90° East 110 127 5,000  Level New York TRACON
Sat 05:38:32 PM 40.2000 -74.2333 57° Northeast 115 132 5,000  Level New York TRACON
Sat 05:39:32 PM 40.2000 -74.1833 90° East 119 137 5,000 -50 Level New York TRACON
Sat 05:40:32 PM 40.2000 -74.1500 90° East 119 137 4,900 -50 Descending New York TRACON
Sat 05:41:32 PM 40.2000 -74.1000 90° East 118 136 4,900 50 Level New York TRACON
Sat 05:42:32 PM 40.2333 -74.0833 21° North 110 127 5,000 50 Climbing New York TRACON
Sat 05:43:32 PM 40.2500 -74.0500 57° Northeast 105 121 5,000  Level New York TRACON
Sat 05:44:32 PM 40.2667 -74.0333 37° Northeast 105 121 5,000  Level New York TRACON
Sat 05:45:32 PM 40.3000 -74.0167 21° North 103 119 5,000  Level New York TRACON
Sat 05:46:32 PM 40.3167 -74.0000 37° Northeast 105 121 5,000  Level New York TRACON
Sat 05:47:32 PM 40.3500 -73.9833 21° North 105 121 5,000  Level New York TRACON
Sat 05:48:32 PM 40.3667 -73.9667 37° Northeast 105 121 5,000  Level New York TRACON
Sat 05:49:32 PM 40.4000 -73.9333 37° Northeast 104 120 5,000  Level New York TRACON
Sat 05:50:32 PM 40.4333 -73.9167 21° North 103 119 5,000  Level New York TRACON
Sat 05:51:32 PM 40.4500 -73.9000 37° Northeast 105 121 5,000  Level New York TRACON
Sat 05:52:32 PM 40.4833 -73.8833 21° North 104 120 5,000  Level New York TRACON
Sat 05:53:32 PM 40.5000 -73.8667 37° Northeast 107 123 5,000  Level New York TRACON
Sat 05:54:32 PM 40.5333 -73.8500 21° North 104 120 5,000  Level New York TRACON
Sat 05:55:32 PM 40.5500 -73.8333 37° Northeast 104 120 5,000  Level New York TRACON
Sat 05:56:32 PM 40.5833 -73.8000 37° Northeast 114 131 5,000 -50 Level New York TRACON
Sat 05:57:32 PM 40.5833 -73.7667 90° East 121 139 4,900 -250 Descending New York TRACON
Sat 05:58:32 PM 40.6000 -73.7167 66° East 117 135 4,500 -500 Descending New York TRACON
Sat 05:59:32 PM 40.6000 -73.6833 90° East 127 146 3,900 -600 Descending New York TRACON
Sat 06:00:32 PM 40.6000 -73.6333 90° East 125 144 3,300 -450 Descending New York TRACON
Sat 06:01:32 PM 40.6000 -73.5833 90° East 126 145 3,000 -350 Descending New York TRACON
Sat 06:02:32 PM 40.6000 -73.5500 90° East 123 142 2,600 -500 Descending New York TRACON
Sat 06:03:32 PM 40.6167 -73.5167 57° Northeast 118 136 2,000 -350 Descending New York TRACON
Sat 06:04:32 PM 40.6333 -73.4833 57° Northeast 103 119 1,900 -250 Descending New York TRACON
Sat 06:05:32 PM 40.6500 -73.4667 37° Northeast 108 124 1,500 -400 Descending New York TRACON
Sat 06:06:32 PM 40.6667 -73.4333 57° Northeast 95 109 1,100 -300 Descending New York TRACON
Sat 06:07:32 PM 40.6833 -73.4000 57° Northeast 90 104 900 -100 Descending New York TRACON
Sat 06:08:32 PM 40.6833 -73.3667 90° East 99 114 900 -150 Level New York TRACON
Sat 06:09:32 PM 40.7167 -73.3833 339° North 84 97 600 -300 Descending New York TRACON
Sat 06:11:00 PM 40.7288 -73.4134 263° West  Level Estimated
Sat 06:18:00 PM 40.7288 -73.4134 247° West  Level Estimated
Sat 06:19:00 PM 40.7288 -73.4134 70° East  Level Estimated

Login

Don't have an account? Register now (free) for customized features, flight alerts, and more!